sensor_id;sensor_type;location;lat;lon;timestamp;P1;durP1;ratioP1;P2;durP2;ratioP2
75847;SDS011;64496;47.540;19.090;2022-11-25T00:01:02;25.77;;;11.85;;
75847;SDS011;64496;47.540;19.090;2022-11-25T00:03:30;29.48;;;12.15;;
75847;SDS011;64496;47.540;19.090;2022-11-25T00:06:06;27.73;;;12.30;;
75847;SDS011;64496;47.540;19.090;2022-11-25T00:08:34;31.37;;;12.60;;
75847;SDS011;64496;47.540;19.090;2022-11-25T00:11:02;30.98;;;13.40;;
75847;SDS011;64496;47.540;19.090;2022-11-25T00:13:30;27.62;;;12.20;;
75847;SDS011;64496;47.540;19.090;2022-11-25T00:15:59;28.75;;;12.25;;
75847;SDS011;64496;47.540;19.090;2022-11-25T00:18:27;28.47;;;12.67;;
75847;SDS011;64496;47.540;19.090;2022-11-25T00:20:55;27.40;;;12.50;;
75847;SDS011;64496;47.540;19.090;2022-11-25T00:23:22;28.08;;;13.02;;
75847;SDS011;64496;47.540;19.090;2022-11-25T00:25:49;28.77;;;13.30;;
75847;SDS011;64496;47.540;19.090;2022-11-25T00:28:18;29.75;;;13.32;;
75847;SDS011;64496;47.540;19.090;2022-11-25T00:30:45;27.43;;;13.03;;
75847;SDS011;64496;47.540;19.090;2022-11-25T00:33:12;25.95;;;12.27;;
75847;SDS011;64496;47.540;19.090;2022-11-25T00:35:39;30.50;;;14.07;;
75847;SDS011;64496;47.540;19.090;2022-11-25T00:38:06;29.98;;;13.32;;
75847;SDS011;64496;47.540;19.090;2022-11-25T00:40:33;28.52;;;12.88;;
75847;SDS011;64496;47.540;19.090;2022-11-25T00:43:00;29.70;;;13.20;;
75847;SDS011;64496;47.540;19.090;2022-11-25T00:45:46;28.80;;;12.73;;
75847;SDS011;64496;47.540;19.090;2022-11-25T00:48:13;31.02;;;13.52;;
75847;SDS011;64496;47.540;19.090;2022-11-25T00:50:41;29.27;;;13.55;;
75847;SDS011;64496;47.540;19.090;2022-11-25T00:53:08;30.40;;;13.70;;
75847;SDS011;64496;47.540;19.090;2022-11-25T00:55:35;29.80;;;13.70;;
75847;SDS011;64496;47.540;19.090;2022-11-25T00:58:17;31.08;;;12.88;;
75847;SDS011;64496;47.540;19.090;2022-11-25T01:00:45;28.23;;;12.45;;
75847;SDS011;64496;47.540;19.090;2022-11-25T01:03:12;29.40;;;13.25;;
75847;SDS011;64496;47.540;19.090;2022-11-25T01:05:40;32.45;;;14.27;;
75847;SDS011;64496;47.540;19.090;2022-11-25T01:08:06;30.40;;;13.90;;
75847;SDS011;64496;47.540;19.090;2022-11-25T01:10:33;29.98;;;12.90;;
75847;SDS011;64496;47.540;19.090;2022-11-25T01:13:00;30.02;;;14.10;;
75847;SDS011;64496;47.540;19.090;2022-11-25T01:15:27;29.75;;;13.38;;
75847;SDS011;64496;47.540;19.090;2022-11-25T01:17:56;30.95;;;13.55;;
75847;SDS011;64496;47.540;19.090;2022-11-25T01:20:23;33.37;;;13.63;;
75847;SDS011;64496;47.540;19.090;2022-11-25T01:22:50;29.90;;;13.45;;
75847;SDS011;64496;47.540;19.090;2022-11-25T01:25:17;28.35;;;12.60;;
75847;SDS011;64496;47.540;19.090;2022-11-25T01:27:45;29.98;;;13.23;;
75847;SDS011;64496;47.540;19.090;2022-11-25T01:32:39;30.53;;;13.63;;
75847;SDS011;64496;47.540;19.090;2022-11-25T01:35:08;29.40;;;12.98;;
75847;SDS011;64496;47.540;19.090;2022-11-25T01:37:35;28.87;;;13.55;;
75847;SDS011;64496;47.540;19.090;2022-11-25T01:40:03;32.00;;;14.43;;
75847;SDS011;64496;47.540;19.090;2022-11-25T01:42:30;30.92;;;13.85;;
75847;SDS011;64496;47.540;19.090;2022-11-25T01:48:02;30.98;;;12.98;;
75847;SDS011;64496;47.540;19.090;2022-11-25T01:50:35;31.80;;;13.70;;
75847;SDS011;64496;47.540;19.090;2022-11-25T01:53:02;31.05;;;13.20;;
75847;SDS011;64496;47.540;19.090;2022-11-25T01:55:32;27.17;;;13.07;;
75847;SDS011;64496;47.540;19.090;2022-11-25T01:58:02;28.60;;;12.90;;
75847;SDS011;64496;47.540;19.090;2022-11-25T02:00:31;30.60;;;14.05;;
75847;SDS011;64496;47.540;19.090;2022-11-25T02:02:58;31.45;;;12.90;;
75847;SDS011;64496;47.540;19.090;2022-11-25T02:05:28;31.95;;;13.77;;
75847;SDS011;64496;47.540;19.090;2022-11-25T02:07:59;29.87;;;13.02;;
75847;SDS011;64496;47.540;19.090;2022-11-25T02:10:27;29.50;;;13.33;;
75847;SDS011;64496;47.540;19.090;2022-11-25T02:12:55;33.70;;;13.93;;
75847;SDS011;64496;47.540;19.090;2022-11-25T02:15:23;28.33;;;13.50;;
75847;SDS011;64496;47.540;19.090;2022-11-25T02:17:49;31.17;;;13.50;;
75847;SDS011;64496;47.540;19.090;2022-11-25T02:20:17;33.25;;;13.88;;
75847;SDS011;64496;47.540;19.090;2022-11-25T02:22:49;32.60;;;14.50;;
75847;SDS011;64496;47.540;19.090;2022-11-25T02:25:21;29.87;;;13.27;;
75847;SDS011;64496;47.540;19.090;2022-11-25T02:27:50;30.12;;;13.13;;
75847;SDS011;64496;47.540;19.090;2022-11-25T02:30:37;30.80;;;14.02;;
75847;SDS011;64496;47.540;19.090;2022-11-25T02:33:04;29.25;;;13.05;;
75847;SDS011;64496;47.540;19.090;2022-11-25T02:35:33;33.60;;;12.73;;
75847;SDS011;64496;47.540;19.090;2022-11-25T02:38:04;34.65;;;12.75;;
75847;SDS011;64496;47.540;19.090;2022-11-25T02:40:35;33.67;;;14.15;;
75847;SDS011;64496;47.540;19.090;2022-11-25T02:43:07;32.65;;;14.10;;
75847;SDS011;64496;47.540;19.090;2022-11-25T02:45:38;31.00;;;13.95;;
75847;SDS011;64496;47.540;19.090;2022-11-25T02:48:09;30.13;;;13.03;;
75847;SDS011;64496;47.540;19.090;2022-11-25T02:50:36;31.67;;;13.18;;
75847;SDS011;64496;47.540;19.090;2022-11-25T02:53:03;31.37;;;12.60;;
75847;SDS011;64496;47.540;19.090;2022-11-25T02:55:32;28.77;;;12.98;;
75847;SDS011;64496;47.540;19.090;2022-11-25T02:58:01;29.48;;;13.30;;
75847;SDS011;64496;47.540;19.090;2022-11-25T03:00:28;30.77;;;12.40;;
75847;SDS011;64496;47.540;19.090;2022-11-25T03:02:55;30.42;;;13.23;;
75847;SDS011;64496;47.540;19.090;2022-11-25T03:05:22;30.17;;;13.70;;
75847;SDS011;64496;47.540;19.090;2022-11-25T03:07:50;32.25;;;13.40;;
75847;SDS011;64496;47.540;19.090;2022-11-25T03:10:18;28.38;;;12.55;;
75847;SDS011;64496;47.540;19.090;2022-11-25T03:12:46;30.27;;;12.67;;
75847;SDS011;64496;47.540;19.090;2022-11-25T03:15:13;31.52;;;12.77;;
75847;SDS011;64496;47.540;19.090;2022-11-25T03:17:41;30.65;;;12.73;;
75847;SDS011;64496;47.540;19.090;2022-11-25T03:20:09;30.17;;;13.05;;
75847;SDS011;64496;47.540;19.090;2022-11-25T03:22:39;30.50;;;13.23;;
75847;SDS011;64496;47.540;19.090;2022-11-25T03:25:07;31.53;;;12.97;;
75847;SDS011;64496;47.540;19.090;2022-11-25T03:27:34;29.60;;;12.57;;
75847;SDS011;64496;47.540;19.090;2022-11-25T03:30:04;33.20;;;13.15;;
75847;SDS011;64496;47.540;19.090;2022-11-25T03:32:34;29.98;;;12.63;;
75847;SDS011;64496;47.540;19.090;2022-11-25T03:35:01;32.38;;;13.77;;
75847;SDS011;64496;47.540;19.090;2022-11-25T03:37:28;33.23;;;13.00;;
75847;SDS011;64496;47.540;19.090;2022-11-25T03:39:55;30.27;;;13.07;;
75847;SDS011;64496;47.540;19.090;2022-11-25T03:42:22;29.23;;;12.65;;
75847;SDS011;64496;47.540;19.090;2022-11-25T03:44:49;33.05;;;12.80;;
75847;SDS011;64496;47.540;19.090;2022-11-25T03:47:19;27.58;;;11.82;;
75847;SDS011;64496;47.540;19.090;2022-11-25T03:49:46;30.70;;;12.77;;
75847;SDS011;64496;47.540;19.090;2022-11-25T03:52:13;30.33;;;12.48;;
75847;SDS011;64496;47.540;19.090;2022-11-25T03:54:40;28.92;;;12.25;;
75847;SDS011;64496;47.540;19.090;2022-11-25T03:57:08;28.73;;;12.10;;
75847;SDS011;64496;47.540;19.090;2022-11-25T03:59:35;29.50;;;12.45;;
75847;SDS011;64496;47.540;19.090;2022-11-25T04:02:02;25.93;;;11.07;;
75847;SDS011;64496;47.540;19.090;2022-11-25T04:04:31;27.83;;;11.32;;
75847;SDS011;64496;47.540;19.090;2022-11-25T04:06:57;29.23;;;12.27;;
75847;SDS011;64496;47.540;19.090;2022-11-25T04:09:25;28.20;;;12.35;;
75847;SDS011;64496;47.540;19.090;2022-11-25T04:11:56;29.27;;;11.32;;
75847;SDS011;64496;47.540;19.090;2022-11-25T04:14:42;25.37;;;11.70;;
75847;SDS011;64496;47.540;19.090;2022-11-25T04:17:09;27.70;;;10.80;;
75847;SDS011;64496;47.540;19.090;2022-11-25T04:19:38;31.23;;;11.20;;
75847;SDS011;64496;47.540;19.090;2022-11-25T04:22:05;28.35;;;11.32;;
75847;SDS011;64496;47.540;19.090;2022-11-25T04:24:34;26.48;;;10.93;;
75847;SDS011;64496;47.540;19.090;2022-11-25T04:27:02;26.10;;;11.13;;
75847;SDS011;64496;47.540;19.090;2022-11-25T04:29:29;25.90;;;10.95;;
75847;SDS011;64496;47.540;19.090;2022-11-25T04:31:57;29.48;;;10.75;;
75847;SDS011;64496;47.540;19.090;2022-11-25T04:34:24;28.67;;;11.65;;
75847;SDS011;64496;47.540;19.090;2022-11-25T04:36:53;31.75;;;11.15;;
75847;SDS011;64496;47.540;19.090;2022-11-25T04:39:20;25.50;;;10.67;;
75847;SDS011;64496;47.540;19.090;2022-11-25T04:41:49;29.17;;;10.98;;
75847;SDS011;64496;47.540;19.090;2022-11-25T04:44:37;27.08;;;11.10;;
75847;SDS011;64496;47.540;19.090;2022-11-25T04:47:04;28.42;;;11.70;;
75847;SDS011;64496;47.540;19.090;2022-11-25T04:49:31;32.75;;;12.65;;
75847;SDS011;64496;47.540;19.090;2022-11-25T04:52:00;27.63;;;11.77;;
75847;SDS011;64496;47.540;19.090;2022-11-25T04:54:26;28.05;;;11.95;;
75847;SDS011;64496;47.540;19.090;2022-11-25T04:56:54;31.85;;;12.40;;
75847;SDS011;64496;47.540;19.090;2022-11-25T04:59:22;28.45;;;10.82;;
75847;SDS011;64496;47.540;19.090;2022-11-25T05:02:10;27.02;;;11.45;;
75847;SDS011;64496;47.540;19.090;2022-11-25T05:04:39;31.87;;;12.87;;
75847;SDS011;64496;47.540;19.090;2022-11-25T05:07:09;32.63;;;13.38;;
75847;SDS011;64496;47.540;19.090;2022-11-25T05:09:36;35.63;;;15.45;;
75847;SDS011;64496;47.540;19.090;2022-11-25T05:12:04;36.33;;;14.45;;
75847;SDS011;64496;47.540;19.090;2022-11-25T05:14:32;32.40;;;12.20;;
75847;SDS011;64496;47.540;19.090;2022-11-25T05:17:00;29.77;;;12.00;;
75847;SDS011;64496;47.540;19.090;2022-11-25T05:19:27;29.67;;;12.40;;
75847;SDS011;64496;47.540;19.090;2022-11-25T05:21:54;29.98;;;12.05;;
75847;SDS011;64496;47.540;19.090;2022-11-25T05:24:23;30.48;;;12.35;;
75847;SDS011;64496;47.540;19.090;2022-11-25T05:26:51;30.27;;;11.38;;
75847;SDS011;64496;47.540;19.090;2022-11-25T05:29:18;32.63;;;13.13;;
75847;SDS011;64496;47.540;19.090;2022-11-25T05:31:46;33.30;;;13.23;;
75847;SDS011;64496;47.540;19.090;2022-11-25T05:34:14;32.28;;;13.20;;
75847;SDS011;64496;47.540;19.090;2022-11-25T05:36:42;27.58;;;11.63;;
75847;SDS011;64496;47.540;19.090;2022-11-25T05:39:10;31.55;;;12.63;;
75847;SDS011;64496;47.540;19.090;2022-11-25T05:41:41;40.70;;;15.77;;
75847;SDS011;64496;47.540;19.090;2022-11-25T05:44:08;46.83;;;17.62;;
75847;SDS011;64496;47.540;19.090;2022-11-25T05:46:35;40.00;;;14.60;;
75847;SDS011;64496;47.540;19.090;2022-11-25T05:49:02;29.55;;;12.45;;
75847;SDS011;64496;47.540;19.090;2022-11-25T05:51:29;33.60;;;13.62;;
75847;SDS011;64496;47.540;19.090;2022-11-25T05:53:57;34.07;;;13.60;;
75847;SDS011;64496;47.540;19.090;2022-11-25T05:56:25;35.78;;;13.77;;
75847;SDS011;64496;47.540;19.090;2022-11-25T05:58:54;40.55;;;14.60;;
75847;SDS011;64496;47.540;19.090;2022-11-25T06:01:24;34.45;;;14.13;;
75847;SDS011;64496;47.540;19.090;2022-11-25T06:03:53;38.97;;;15.88;;
75847;SDS011;64496;47.540;19.090;2022-11-25T06:06:19;37.70;;;15.30;;
75847;SDS011;64496;47.540;19.090;2022-11-25T06:08:46;42.78;;;15.32;;
75847;SDS011;64496;47.540;19.090;2022-11-25T06:11:15;35.97;;;14.48;;
75847;SDS011;64496;47.540;19.090;2022-11-25T06:13:43;55.00;;;20.23;;
75847;SDS011;64496;47.540;19.090;2022-11-25T06:16:12;80.55;;;28.60;;
75847;SDS011;64496;47.540;19.090;2022-11-25T06:18:42;62.20;;;22.23;;
75847;SDS011;64496;47.540;19.090;2022-11-25T06:21:10;58.45;;;22.02;;
75847;SDS011;64496;47.540;19.090;2022-11-25T06:23:39;58.35;;;21.58;;
75847;SDS011;64496;47.540;19.090;2022-11-25T06:26:07;63.17;;;23.62;;
75847;SDS011;64496;47.540;19.090;2022-11-25T06:28:36;52.33;;;21.87;;
75847;SDS011;64496;47.540;19.090;2022-11-25T06:31:03;48.80;;;20.00;;
75847;SDS011;64496;47.540;19.090;2022-11-25T06:33:35;50.83;;;20.35;;
75847;SDS011;64496;47.540;19.090;2022-11-25T06:36:02;55.45;;;19.50;;
75847;SDS011;64496;47.540;19.090;2022-11-25T06:38:30;43.50;;;18.17;;
75847;SDS011;64496;47.540;19.090;2022-11-25T06:40:58;40.40;;;16.45;;
75847;SDS011;64496;47.540;19.090;2022-11-25T06:43:26;45.03;;;16.57;;
75847;SDS011;64496;47.540;19.090;2022-11-25T06:45:53;46.00;;;18.33;;
75847;SDS011;64496;47.540;19.090;2022-11-25T06:48:20;53.08;;;20.35;;
75847;SDS011;64496;47.540;19.090;2022-11-25T06:50:55;44.95;;;16.77;;
75847;SDS011;64496;47.540;19.090;2022-11-25T06:53:23;66.12;;;26.92;;
75847;SDS011;64496;47.540;19.090;2022-11-25T06:56:00;78.83;;;28.20;;
75847;SDS011;64496;47.540;19.090;2022-11-25T06:58:28;67.80;;;24.17;;
75847;SDS011;64496;47.540;19.090;2022-11-25T07:00:58;57.20;;;21.37;;
75847;SDS011;64496;47.540;19.090;2022-11-25T07:03:26;62.38;;;21.08;;
75847;SDS011;64496;47.540;19.090;2022-11-25T07:05:55;45.28;;;17.40;;
75847;SDS011;64496;47.540;19.090;2022-11-25T07:08:23;53.07;;;17.53;;
75847;SDS011;64496;47.540;19.090;2022-11-25T07:10:50;45.42;;;17.73;;
75847;SDS011;64496;47.540;19.090;2022-11-25T07:13:18;45.05;;;17.85;;
75847;SDS011;64496;47.540;19.090;2022-11-25T07:15:45;41.75;;;17.12;;
75847;SDS011;64496;47.540;19.090;2022-11-25T07:18:12;46.08;;;17.62;;
75847;SDS011;64496;47.540;19.090;2022-11-25T07:20:39;43.33;;;17.10;;
75847;SDS011;64496;47.540;19.090;2022-11-25T07:23:07;38.63;;;16.65;;
75847;SDS011;64496;47.540;19.090;2022-11-25T07:25:34;37.65;;;16.40;;
75847;SDS011;64496;47.540;19.090;2022-11-25T07:28:02;35.47;;;15.65;;
75847;SDS011;64496;47.540;19.090;2022-11-25T07:30:29;41.20;;;18.15;;
75847;SDS011;64496;47.540;19.090;2022-11-25T07:32:57;41.23;;;17.67;;
75847;SDS011;64496;47.540;19.090;2022-11-25T07:35:25;41.37;;;17.12;;
75847;SDS011;64496;47.540;19.090;2022-11-25T07:37:53;40.67;;;16.50;;
75847;SDS011;64496;47.540;19.090;2022-11-25T07:40:22;39.88;;;16.70;;
75847;SDS011;64496;47.540;19.090;2022-11-25T07:42:50;36.65;;;15.63;;
75847;SDS011;64496;47.540;19.090;2022-11-25T07:45:19;36.53;;;15.23;;
75847;SDS011;64496;47.540;19.090;2022-11-25T07:47:49;29.87;;;13.32;;
75847;SDS011;64496;47.540;19.090;2022-11-25T07:50:16;30.00;;;13.20;;
75847;SDS011;64496;47.540;19.090;2022-11-25T07:52:43;28.23;;;13.32;;
75847;SDS011;64496;47.540;19.090;2022-11-25T07:55:10;26.02;;;12.90;;
75847;SDS011;64496;47.540;19.090;2022-11-25T07:57:39;26.60;;;12.90;;
75847;SDS011;64496;47.540;19.090;2022-11-25T08:00:06;28.42;;;13.30;;
75847;SDS011;64496;47.540;19.090;2022-11-25T08:02:37;25.45;;;13.07;;
75847;SDS011;64496;47.540;19.090;2022-11-25T08:05:04;25.98;;;13.20;;
75847;SDS011;64496;47.540;19.090;2022-11-25T08:07:32;26.05;;;12.82;;
75847;SDS011;64496;47.540;19.090;2022-11-25T08:09:59;23.43;;;12.53;;
75847;SDS011;64496;47.540;19.090;2022-11-25T08:12:26;28.58;;;14.63;;
75847;SDS011;64496;47.540;19.090;2022-11-25T08:14:54;25.20;;;12.82;;
75847;SDS011;64496;47.540;19.090;2022-11-25T08:17:21;28.83;;;14.02;;
75847;SDS011;64496;47.540;19.090;2022-11-25T08:19:48;26.62;;;13.88;;
75847;SDS011;64496;47.540;19.090;2022-11-25T08:22:15;25.23;;;14.03;;
75847;SDS011;64496;47.540;19.090;2022-11-25T08:24:42;25.15;;;13.07;;
75847;SDS011;64496;47.540;19.090;2022-11-25T08:27:09;26.42;;;13.15;;
75847;SDS011;64496;47.540;19.090;2022-11-25T08:29:36;26.17;;;12.65;;
75847;SDS011;64496;47.540;19.090;2022-11-25T08:32:05;22.48;;;12.35;;
75847;SDS011;64496;47.540;19.090;2022-11-25T08:34:33;25.70;;;12.03;;
75847;SDS011;64496;47.540;19.090;2022-11-25T08:37:00;26.52;;;13.00;;
75847;SDS011;64496;47.540;19.090;2022-11-25T08:39:27;29.12;;;13.02;;
75847;SDS011;64496;47.540;19.090;2022-11-25T08:41:55;27.42;;;13.10;;
75847;SDS011;64496;47.540;19.090;2022-11-25T08:44:23;38.72;;;17.37;;
75847;SDS011;64496;47.540;19.090;2022-11-25T08:46:52;38.10;;;17.90;;
75847;SDS011;64496;47.540;19.090;2022-11-25T08:49:21;23.48;;;12.37;;
75847;SDS011;64496;47.540;19.090;2022-11-25T08:51:48;23.70;;;13.20;;
75847;SDS011;64496;47.540;19.090;2022-11-25T08:54:15;27.87;;;13.02;;
75847;SDS011;64496;47.540;19.090;2022-11-25T08:56:42;23.00;;;12.00;;
75847;SDS011;64496;47.540;19.090;2022-11-25T08:59:09;22.03;;;11.93;;
75847;SDS011;64496;47.540;19.090;2022-11-25T09:01:36;25.15;;;12.15;;
75847;SDS011;64496;47.540;19.090;2022-11-25T09:04:03;25.58;;;12.25;;
75847;SDS011;64496;47.540;19.090;2022-11-25T09:06:32;23.95;;;12.23;;
75847;SDS011;64496;47.540;19.090;2022-11-25T09:08:59;26.48;;;12.45;;
75847;SDS011;64496;47.540;19.090;2022-11-25T09:11:26;21.70;;;12.67;;
75847;SDS011;64496;47.540;19.090;2022-11-25T09:13:53;19.85;;;11.20;;
75847;SDS011;64496;47.540;19.090;2022-11-25T09:16:20;19.60;;;10.95;;
75847;SDS011;64496;47.540;19.090;2022-11-25T09:18:47;19.40;;;10.98;;
75847;SDS011;64496;47.540;19.090;2022-11-25T09:21:15;23.77;;;13.45;;
75847;SDS011;64496;47.540;19.090;2022-11-25T09:23:44;32.47;;;15.30;;
75847;SDS011;64496;47.540;19.090;2022-11-25T09:26:20;28.85;;;11.90;;
75847;SDS011;64496;47.540;19.090;2022-11-25T09:28:48;21.92;;;10.75;;
75847;SDS011;64496;47.540;19.090;2022-11-25T09:31:16;19.35;;;10.50;;
75847;SDS011;64496;47.540;19.090;2022-11-25T09:33:43;18.00;;;10.93;;
75847;SDS011;64496;47.540;19.090;2022-11-25T09:36:10;21.60;;;10.97;;
75847;SDS011;64496;47.540;19.090;2022-11-25T09:38:38;20.92;;;10.45;;
75847;SDS011;64496;47.540;19.090;2022-11-25T09:41:07;18.98;;;10.40;;
75847;SDS011;64496;47.540;19.090;2022-11-25T09:44:04;19.70;;;10.52;;
75847;SDS011;64496;47.540;19.090;2022-11-25T09:46:53;21.80;;;10.45;;
75847;SDS011;64496;47.540;19.090;2022-11-25T09:49:28;20.40;;;10.13;;
75847;SDS011;64496;47.540;19.090;2022-11-25T09:52:04;21.25;;;9.75;;
75847;SDS011;64496;47.540;19.090;2022-11-25T09:54:36;21.37;;;10.20;;
75847;SDS011;64496;47.540;19.090;2022-11-25T09:57:10;21.25;;;9.45;;
75847;SDS011;64496;47.540;19.090;2022-11-25T09:59:46;20.02;;;9.90;;
75847;SDS011;64496;47.540;19.090;2022-11-25T10:02:18;20.57;;;9.77;;
75847;SDS011;64496;47.540;19.090;2022-11-25T10:04:51;21.95;;;9.63;;
75847;SDS011;64496;47.540;19.090;2022-11-25T10:07:24;21.33;;;9.82;;
75847;SDS011;64496;47.540;19.090;2022-11-25T10:09:54;23.98;;;9.70;;
75847;SDS011;64496;47.540;19.090;2022-11-25T10:12:24;19.00;;;9.25;;
75847;SDS011;64496;47.540;19.090;2022-11-25T10:14:54;20.97;;;9.97;;
75847;SDS011;64496;47.540;19.090;2022-11-25T10:17:29;20.20;;;9.57;;
75847;SDS011;64496;47.540;19.090;2022-11-25T10:20:01;21.95;;;10.30;;
75847;SDS011;64496;47.540;19.090;2022-11-25T10:22:32;21.58;;;9.65;;
75847;SDS011;64496;47.540;19.090;2022-11-25T10:25:00;21.73;;;10.25;;
75847;SDS011;64496;47.540;19.090;2022-11-25T10:27:35;21.73;;;9.80;;
75847;SDS011;64496;47.540;19.090;2022-11-25T10:30:10;22.95;;;10.10;;
75847;SDS011;64496;47.540;19.090;2022-11-25T10:32:42;20.42;;;10.00;;
75847;SDS011;64496;47.540;19.090;2022-11-25T10:35:14;30.10;;;10.85;;
75847;SDS011;64496;47.540;19.090;2022-11-25T10:37:47;20.98;;;9.18;;
75847;SDS011;64496;47.540;19.090;2022-11-25T10:40:19;22.03;;;9.00;;
75847;SDS011;64496;47.540;19.090;2022-11-25T10:42:49;22.50;;;8.77;;
75847;SDS011;64496;47.540;19.090;2022-11-25T10:45:16;19.48;;;8.80;;
75847;SDS011;64496;47.540;19.090;2022-11-25T10:47:49;25.52;;;9.80;;
75847;SDS011;64496;47.540;19.090;2022-11-25T10:50:27;21.27;;;9.60;;
75847;SDS011;64496;47.540;19.090;2022-11-25T10:52:58;22.27;;;9.30;;
75847;SDS011;64496;47.540;19.090;2022-11-25T10:55:27;24.10;;;9.98;;
75847;SDS011;64496;47.540;19.090;2022-11-25T10:57:57;19.67;;;8.75;;
75847;SDS011;64496;47.540;19.090;2022-11-25T11:00:26;22.30;;;9.70;;
75847;SDS011;64496;47.540;19.090;2022-11-25T11:02:56;21.62;;;10.63;;
75847;SDS011;64496;47.540;19.090;2022-11-25T11:05:24;21.03;;;9.30;;
75847;SDS011;64496;47.540;19.090;2022-11-25T11:08:07;20.77;;;9.77;;
75847;SDS011;64496;47.540;19.090;2022-11-25T11:10:42;21.83;;;9.77;;
75847;SDS011;64496;47.540;19.090;2022-11-25T11:13:19;22.55;;;10.13;;
75847;SDS011;64496;47.540;19.090;2022-11-25T11:15:47;25.12;;;9.90;;
75847;SDS011;64496;47.540;19.090;2022-11-25T11:18:19;22.10;;;9.03;;
75847;SDS011;64496;47.540;19.090;2022-11-25T11:20:50;21.95;;;8.52;;
75847;SDS011;64496;47.540;19.090;2022-11-25T11:23:18;18.50;;;8.32;;
75847;SDS011;64496;47.540;19.090;2022-11-25T11:25:53;14.43;;;7.15;;
75847;SDS011;64496;47.540;19.090;2022-11-25T11:28:27;32.67;;;12.15;;
75847;SDS011;64496;47.540;19.090;2022-11-25T11:30:59;38.93;;;14.07;;
75847;SDS011;64496;47.540;19.090;2022-11-25T11:33:27;33.05;;;14.57;;
75847;SDS011;64496;47.540;19.090;2022-11-25T11:35:57;32.00;;;13.75;;
75847;SDS011;64496;47.540;19.090;2022-11-25T11:38:30;30.05;;;13.40;;
75847;SDS011;64496;47.540;19.090;2022-11-25T11:41:01;30.20;;;13.55;;
75847;SDS011;64496;47.540;19.090;2022-11-25T11:43:47;37.60;;;14.43;;
75847;SDS011;64496;47.540;19.090;2022-11-25T11:46:25;33.67;;;13.80;;
75847;SDS011;64496;47.540;19.090;2022-11-25T11:49:01;31.20;;;13.43;;
75847;SDS011;64496;47.540;19.090;2022-11-25T11:51:38;32.92;;;13.18;;
75847;SDS011;64496;47.540;19.090;2022-11-25T11:54:09;31.12;;;13.50;;
75847;SDS011;64496;47.540;19.090;2022-11-25T11:56:43;29.53;;;12.93;;
75847;SDS011;64496;47.540;19.090;2022-11-25T11:59:20;27.80;;;12.68;;
75847;SDS011;64496;47.540;19.090;2022-11-25T12:02:13;29.48;;;12.25;;
75847;SDS011;64496;47.540;19.090;2022-11-25T12:04:46;25.17;;;11.60;;
75847;SDS011;64496;47.540;19.090;2022-11-25T12:07:19;28.30;;;12.50;;
75847;SDS011;64496;47.540;19.090;2022-11-25T12:09:50;30.93;;;12.20;;
75847;SDS011;64496;47.540;19.090;2022-11-25T12:12:19;26.45;;;11.88;;
75847;SDS011;64496;47.540;19.090;2022-11-25T12:14:52;30.92;;;12.10;;
75847;SDS011;64496;47.540;19.090;2022-11-25T12:17:25;26.17;;;13.27;;
75847;SDS011;64496;47.540;19.090;2022-11-25T12:19:54;25.08;;;10.80;;
75847;SDS011;64496;47.540;19.090;2022-11-25T12:22:25;26.07;;;9.40;;
75847;SDS011;64496;47.540;19.090;2022-11-25T12:24:57;23.90;;;9.60;;
75847;SDS011;64496;47.540;19.090;2022-11-25T12:27:30;23.75;;;10.55;;
75847;SDS011;64496;47.540;19.090;2022-11-25T12:30:02;21.85;;;8.77;;
75847;SDS011;64496;47.540;19.090;2022-11-25T12:32:40;30.83;;;11.20;;
75847;SDS011;64496;47.540;19.090;2022-11-25T12:35:15;42.93;;;15.00;;
75847;SDS011;64496;47.540;19.090;2022-11-25T12:37:46;51.92;;;18.25;;
75847;SDS011;64496;47.540;19.090;2022-11-25T12:40:17;23.62;;;10.00;;
75847;SDS011;64496;47.540;19.090;2022-11-25T12:42:48;20.17;;;9.15;;
75847;SDS011;64496;47.540;19.090;2022-11-25T12:45:17;17.70;;;8.30;;
75847;SDS011;64496;47.540;19.090;2022-11-25T12:47:48;24.20;;;10.77;;
75847;SDS011;64496;47.540;19.090;2022-11-25T12:50:15;18.12;;;8.88;;
75847;SDS011;64496;47.540;19.090;2022-11-25T12:52:48;20.20;;;8.43;;
75847;SDS011;64496;47.540;19.090;2022-11-25T12:55:20;17.12;;;8.35;;
75847;SDS011;64496;47.540;19.090;2022-11-25T13:01:00;16.67;;;7.80;;
75847;SDS011;64496;47.540;19.090;2022-11-25T13:03:38;15.35;;;7.47;;
75847;SDS011;64496;47.540;19.090;2022-11-25T13:06:34;17.05;;;7.85;;
75847;SDS011;64496;47.540;19.090;2022-11-25T13:09:13;18.60;;;7.93;;
75847;SDS011;64496;47.540;19.090;2022-11-25T13:11:55;19.67;;;8.20;;
75847;SDS011;64496;47.540;19.090;2022-11-25T13:14:29;18.27;;;7.50;;
75847;SDS011;64496;47.540;19.090;2022-11-25T13:17:14;17.23;;;7.75;;
75847;SDS011;64496;47.540;19.090;2022-11-25T13:19:42;17.70;;;8.60;;
75847;SDS011;64496;47.540;19.090;2022-11-25T13:22:23;15.25;;;6.57;;
75847;SDS011;64496;47.540;19.090;2022-11-25T13:24:54;17.80;;;6.62;;
75847;SDS011;64496;47.540;19.090;2022-11-25T13:27:29;20.37;;;6.90;;
75847;SDS011;64496;47.540;19.090;2022-11-25T13:29:57;16.60;;;6.90;;
75847;SDS011;64496;47.540;19.090;2022-11-25T13:32:30;18.98;;;8.63;;
75847;SDS011;64496;47.540;19.090;2022-11-25T13:37:59;13.80;;;5.72;;
75847;SDS011;64496;47.540;19.090;2022-11-25T13:40:35;12.50;;;5.47;;
75847;SDS011;64496;47.540;19.090;2022-11-25T13:43:03;17.23;;;6.70;;
75847;SDS011;64496;47.540;19.090;2022-11-25T13:45:31;16.02;;;6.07;;
75847;SDS011;64496;47.540;19.090;2022-11-25T13:48:05;16.62;;;6.53;;
75847;SDS011;64496;47.540;19.090;2022-11-25T13:50:37;17.87;;;6.50;;
75847;SDS011;64496;47.540;19.090;2022-11-25T13:53:04;13.67;;;6.20;;
75847;SDS011;64496;47.540;19.090;2022-11-25T13:55:34;21.52;;;6.78;;
75847;SDS011;64496;47.540;19.090;2022-11-25T13:58:04;13.48;;;6.60;;
75847;SDS011;64496;47.540;19.090;2022-11-25T14:03:47;18.35;;;6.50;;
75847;SDS011;64496;47.540;19.090;2022-11-25T14:06:21;13.80;;;6.40;;
75847;SDS011;64496;47.540;19.090;2022-11-25T14:09:19;15.80;;;6.97;;
75847;SDS011;64496;47.540;19.090;2022-11-25T14:11:58;20.17;;;7.43;;
75847;SDS011;64496;47.540;19.090;2022-11-25T14:14:47;16.25;;;7.30;;
75847;SDS011;64496;47.540;19.090;2022-11-25T14:20:23;16.87;;;7.33;;
75847;SDS011;64496;47.540;19.090;2022-11-25T14:23:01;20.73;;;7.37;;
75847;SDS011;64496;47.540;19.090;2022-11-25T14:25:48;22.77;;;8.05;;
75847;SDS011;64496;47.540;19.090;2022-11-25T14:28:20;18.12;;;7.78;;
75847;SDS011;64496;47.540;19.090;2022-11-25T14:30:53;22.70;;;7.70;;
75847;SDS011;64496;47.540;19.090;2022-11-25T14:33:25;18.53;;;7.37;;
75847;SDS011;64496;47.540;19.090;2022-11-25T14:35:59;21.10;;;8.82;;
75847;SDS011;64496;47.540;19.090;2022-11-25T14:38:31;22.95;;;7.75;;
75847;SDS011;64496;47.540;19.090;2022-11-25T14:41:04;15.52;;;7.20;;
75847;SDS011;64496;47.540;19.090;2022-11-25T14:43:35;19.35;;;7.72;;
75847;SDS011;64496;47.540;19.090;2022-11-25T14:46:08;16.80;;;7.57;;